Time;durP1;ratioP1;P1;durP2;ratioP2;P2;SDS_P1;SDS_P2;PMS_P1;PMS_P2;Temp;Humidity;BMP_temperature;BMP_pressure;BME280_temperature;BME280_humidity;BME280_pressure;Samples;Min_cycle;Max_cycle;Signal;HPM_P1;HPM_P2
2022/04/22 00:00:08;;;;;;;20.10;11.88;;;9.50;89.60;;;;;;5074814;28;20097;-13
2022/04/22 00:02:35;;;;;;;16.58;10.25;;;9.50;90.00;;;;;;5074570;28;20024;-12
2022/04/22 00:05:02;;;;;;;19.38;11.52;;;9.50;89.60;;;;;;5074420;28;20020;-14
2022/04/22 00:07:28;;;;;;;19.92;10.93;;;9.50;89.20;;;;;;5074541;28;20021;-12
2022/04/22 00:09:57;;;;;;;21.17;12.10;;;9.60;89.80;;;;;;5074226;28;20365;-13
2022/04/22 00:12:23;;;;;;;18.35;11.20;;;9.60;90.00;;;;;;5074142;28;20035;-14
2022/04/22 00:14:49;;;;;;;20.95;13.43;;;9.60;89.90;;;;;;5074117;28;20513;-13
2022/04/22 00:17:15;;;;;;;21.17;11.63;;;9.60;89.60;;;;;;5074191;28;20031;-13
2022/04/22 00:19:41;;;;;;;20.20;12.45;;;9.60;89.80;;;;;;5074132;28;20067;-13
2022/04/22 00:22:07;;;;;;;21.80;12.75;;;9.60;90.00;;;;;;5074169;28;20048;-12
2022/04/22 00:24:32;;;;;;;21.08;12.98;;;9.60;90.10;;;;;;5072561;28;20024;-13
2022/04/22 00:26:58;;;;;;;22.17;12.63;;;9.60;90.00;;;;;;5074291;28;20031;-13
2022/04/22 00:29:24;;;;;;;22.13;12.63;;;9.60;90.00;;;;;;5073872;28;20029;-13
2022/04/22 00:31:50;;;;;;;23.50;13.32;;;9.70;90.30;;;;;;5073988;28;20135;-13
2022/04/22 00:34:16;;;;;;;21.23;12.27;;;9.70;90.20;;;;;;5073881;28;20040;-13
2022/04/22 00:36:42;;;;;;;21.33;13.15;;;9.70;90.20;;;;;;5074087;28;20392;-13
2022/04/22 00:39:08;;;;;;;21.88;13.02;;;9.80;90.30;;;;;;5074145;28;20143;-14
2022/04/22 00:41:34;;;;;;;21.98;12.93;;;9.70;90.50;;;;;;5073554;28;20119;-12
2022/04/22 00:44:00;;;;;;;20.83;13.35;;;9.70;90.40;;;;;;5072421;28;20028;-13
2022/04/22 00:46:26;;;;;;;20.27;13.23;;;9.70;90.50;;;;;;5073380;28;20462;-14
2022/04/22 00:48:52;;;;;;;23.25;13.50;;;9.70;90.40;;;;;;5073807;28;20075;-12
2022/04/22 00:51:21;;;;;;;22.02;13.32;;;9.70;90.40;;;;;;5073362;28;20020;-12
2022/04/22 00:53:51;;;;;;;23.42;13.80;;;9.70;90.50;;;;;;5074344;28;20078;-13
2022/04/22 00:56:17;;;;;;;22.60;13.85;;;9.70;90.60;;;;;;5073433;28;20021;-12
2022/04/22 00:58:47;;;;;;;24.40;12.88;;;9.60;90.50;;;;;;5073423;28;20032;-13
2022/04/22 01:01:13;;;;;;;21.02;13.48;;;9.70;90.40;;;;;;5073704;28;20032;-12
2022/04/22 01:09:47;;;;;;;19.88;12.55;;;9.70;90.50;;;;;;5073700;28;20020;-13
2022/04/22 01:09:59;;;;;;;23.17;12.70;;;9.70;90.50;;;;;;5073693;28;20549;-12
2022/04/22 01:12:00;;;;;;;22.52;12.55;;;9.70;90.50;;;;;;5069572;28;20506;-12
2022/04/22 01:14:26;;;;;;;20.60;12.38;;;9.70;90.50;;;;;;5071734;28;20504;-11
2022/04/22 01:16:52;;;;;;;20.58;12.77;;;9.70;90.60;;;;;;5073274;28;20104;-12
2022/04/22 01:19:18;;;;;;;20.83;13.10;;;9.70;90.70;;;;;;5073149;28;20071;-12
2022/04/22 01:21:44;;;;;;;21.40;12.15;;;9.70;90.70;;;;;;5073445;28;20093;-12
2022/04/22 01:24:10;;;;;;;19.17;12.13;;;9.80;90.70;;;;;;5073381;28;20456;-11
2022/04/22 01:26:37;;;;;;;19.35;12.32;;;9.70;90.70;;;;;;5072958;28;20036;-11
2022/04/22 01:29:04;;;;;;;19.38;12.50;;;9.70;90.70;;;;;;5073492;28;20500;-12
2022/04/22 01:31:30;;;;;;;21.38;12.35;;;9.80;90.60;;;;;;5072984;28;20028;-13
2022/04/22 01:33:56;;;;;;;18.30;10.57;;;9.80;90.70;;;;;;5072929;28;20044;-12
2022/04/22 01:36:22;;;;;;;18.83;11.30;;;9.80;90.50;;;;;;5073091;28;20030;-12
2022/04/22 01:38:48;;;;;;;19.25;11.43;;;9.90;90.60;;;;;;5072971;28;20390;-11
2022/04/22 01:41:14;;;;;;;21.33;11.10;;;9.80;90.50;;;;;;5073083;28;20024;-11
2022/04/22 01:43:41;;;;;;;18.90;11.27;;;9.90;90.40;;;;;;5072918;28;20029;-11
2022/04/22 01:46:06;;;;;;;19.48;11.90;;;9.90;90.50;;;;;;5073077;28;20032;-12
2022/04/22 01:48:32;;;;;;;20.55;11.75;;;9.90;90.40;;;;;;5072604;28;20024;-11
2022/04/22 01:50:58;;;;;;;18.15;10.93;;;9.90;90.40;;;;;;5073119;28;20029;-12
2022/04/22 01:53:25;;;;;;;18.13;11.82;;;9.90;90.10;;;;;;5072962;28;20494;-11
2022/04/22 01:55:51;;;;;;;17.63;10.02;;;9.90;90.30;;;;;;5072892;28;20036;-11
2022/04/22 01:58:16;;;;;;;17.83;10.68;;;9.90;90.10;;;;;;5071386;28;20097;-11
2022/04/22 02:00:42;;;;;;;17.08;10.68;;;9.90;90.50;;;;;;5072782;28;20059;-11
2022/04/22 02:03:08;;;;;;;15.93;9.90;;;9.90;90.50;;;;;;5075835;28;20028;-11
2022/04/22 02:05:34;;;;;;;17.70;10.02;;;9.90;90.30;;;;;;5076633;28;20021;-11
2022/04/22 02:08:01;;;;;;;19.38;10.40;;;9.90;90.30;;;;;;5076660;28;20059;-11
2022/04/22 02:10:27;;;;;;;16.33;10.60;;;9.90;90.20;;;;;;5076239;28;20039;-12
2022/04/22 02:12:53;;;;;;;19.10;11.00;;;9.90;90.00;;;;;;5076784;28;20036;-11
2022/04/22 02:15:20;;;;;;;17.52;10.30;;;9.90;90.00;;;;;;5076436;28;20068;-10
2022/04/22 02:17:47;;;;;;;15.23;9.80;;;9.90;89.80;;;;;;5076466;28;20028;-12
2022/04/22 02:20:13;;;;;;;18.48;10.50;;;9.90;89.70;;;;;;5076494;28;20502;-12
2022/04/22 02:22:39;;;;;;;18.73;11.02;;;9.90;89.70;;;;;;5076854;28;20411;-11
2022/04/22 02:25:06;;;;;;;16.13;10.15;;;9.90;89.70;;;;;;5076529;28;20054;-10
2022/04/22 02:30:18;;;;;;;18.30;11.05;;;9.80;89.50;;;;;;5076090;28;20082;-11
2022/04/22 02:32:44;;;;;;;16.23;10.05;;;9.80;89.70;;;;;;5076180;28;20029;-11
2022/04/22 02:35:10;;;;;;;17.73;10.73;;;9.80;89.60;;;;;;5074897;28;20037;-10
2022/04/22 02:37:36;;;;;;;16.95;10.02;;;9.80;89.40;;;;;;5076402;28;20062;-11
2022/04/22 02:40:03;;;;;;;16.08;10.30;;;9.80;89.40;;;;;;5075948;28;20024;-11
2022/04/22 02:45:29;;;;;;;15.18;10.38;;;9.90;89.40;;;;;;5076346;28;20100;-10
2022/04/22 02:47:56;;;;;;;16.20;10.50;;;9.90;89.40;;;;;;5076584;28;20112;-11
2022/04/22 02:50:23;;;;;;;15.80;9.98;;;9.90;89.30;;;;;;5075658;28;20039;-10
2022/04/22 02:52:49;;;;;;;15.43;10.27;;;9.90;89.40;;;;;;5075825;28;20028;-11
2022/04/22 02:55:15;;;;;;;17.67;10.43;;;9.90;89.10;;;;;;5075633;28;20039;-11
2022/04/22 02:57:44;;;;;;;19.25;10.90;;;9.90;89.00;;;;;;5075721;28;20028;-10
2022/04/22 03:00:14;;;;;;;17.05;10.18;;;10.00;89.30;;;;;;5075687;28;20488;-11
2022/04/22 03:02:44;;;;;;;17.88;11.45;;;9.90;89.30;;;;;;5075647;28;20099;-11
2022/04/22 03:05:11;;;;;;;17.27;10.95;;;9.90;89.30;;;;;;5075920;28;20052;-12
2022/04/22 03:07:38;;;;;;;19.08;11.30;;;10.00;89.40;;;;;;5075775;28;20514;-11
2022/04/22 03:10:07;;;;;;;16.70;10.38;;;10.00;89.20;;;;;;5075444;28;20396;-11
2022/04/22 03:12:34;;;;;;;18.10;10.65;;;10.00;89.10;;;;;;5076009;28;20119;-12
2022/04/22 03:15:01;;;;;;;19.23;10.80;;;10.00;89.30;;;;;;5074666;28;20166;-11
2022/04/22 03:17:27;;;;;;;15.07;9.90;;;9.90;89.10;;;;;;5075692;28;20134;-12
2022/04/22 03:19:53;;;;;;;16.27;9.00;;;10.00;89.10;;;;;;5075359;28;20476;-10
2022/04/22 03:22:20;;;;;;;21.30;11.07;;;10.00;89.00;;;;;;5075233;28;20102;-11
2022/04/22 03:24:46;;;;;;;19.23;11.00;;;10.00;89.30;;;;;;5075039;28;20503;-11
2022/04/22 03:27:12;;;;;;;15.32;9.90;;;9.90;89.20;;;;;;5075553;28;20032;-11
2022/04/22 03:29:38;;;;;;;14.55;9.27;;;10.00;88.80;;;;;;5075386;28;20028;-11
2022/04/22 03:32:05;;;;;;;16.45;10.10;;;10.00;88.80;;;;;;5075426;28;20024;-10
2022/04/22 03:34:32;;;;;;;17.77;10.02;;;10.00;89.10;;;;;;5074799;28;20115;-11
2022/04/22 03:36:59;;;;;;;18.17;10.60;;;10.00;89.10;;;;;;5075012;28;20032;-11
2022/04/22 03:39:25;;;;;;;19.88;10.13;;;10.00;89.20;;;;;;5075278;28;20031;-11
2022/04/22 03:41:51;;;;;;;16.67;10.02;;;10.00;89.10;;;;;;5074795;28;20036;-11
2022/04/22 03:44:17;;;;;;;14.60;9.20;;;10.00;89.00;;;;;;5074612;28;20472;-11
2022/04/22 03:46:43;;;;;;;15.65;9.82;;;10.00;88.90;;;;;;5075127;28;20030;-10
2022/04/22 03:49:09;;;;;;;20.02;9.48;;;10.00;89.00;;;;;;5074766;28;20438;-10
2022/04/22 03:51:36;;;;;;;14.13;9.10;;;10.10;89.20;;;;;;5075022;28;20021;-11
2022/04/22 03:54:02;;;;;;;13.15;8.10;;;10.10;89.00;;;;;;5074626;28;20037;-10
2022/04/22 03:59:13;;;;;;;14.80;8.70;;;10.10;88.90;;;;;;5074684;28;20403;-10
2022/04/22 04:01:39;;;;;;;13.27;8.20;;;10.20;89.00;;;;;;5074500;28;20476;-11
2022/04/22 04:04:05;;;;;;;13.15;8.07;;;10.20;89.00;;;;;;5074478;28;20070;-10
2022/04/22 04:06:31;;;;;;;14.50;8.90;;;10.20;88.90;;;;;;5074345;28;20051;-11
2022/04/22 04:17:14;;;;;;;15.95;8.98;;;10.20;89.00;;;;;;5074366;28;20039;-12
2022/04/22 04:25:10;;;;;;;17.83;10.20;;;10.30;89.20;;;;;;5074499;28;20074;-10
2022/04/22 04:27:36;;;;;;;14.80;9.75;;;10.30;88.90;;;;;;5073925;28;20028;-10
2022/04/22 04:30:07;;;;;;;15.35;9.70;;;10.30;89.20;;;;;;5073953;28;20024;-11
2022/04/22 04:32:32;;;;;;;14.75;9.52;;;10.30;88.80;;;;;;5073810;28;20052;-10
2022/04/22 04:34:58;;;;;;;13.68;9.27;;;10.30;88.60;;;;;;5072511;28;20079;-10
2022/04/22 04:37:24;;;;;;;17.02;10.18;;;10.30;88.70;;;;;;5073848;28;20028;-11
2022/04/22 04:39:50;;;;;;;15.93;10.18;;;10.30;89.10;;;;;;5073677;28;20021;-11
2022/04/22 04:42:16;;;;;;;18.67;10.88;;;10.30;89.10;;;;;;5073552;28;20031;-9
2022/04/22 04:44:43;;;;;;;15.43;9.60;;;10.30;89.00;;;;;;5073564;28;20028;-11
2022/04/22 04:47:08;;;;;;;18.20;10.52;;;10.30;88.80;;;;;;5073679;28;20031;-10
2022/04/22 04:49:35;;;;;;;16.30;10.30;;;10.30;88.80;;;;;;5073863;28;20069;-10
2022/04/22 04:52:01;;;;;;;17.73;11.15;;;10.40;89.00;;;;;;5072367;28;20047;-11
2022/04/22 04:54:27;;;;;;;15.07;9.18;;;10.40;89.10;;;;;;5073292;28;20392;-11
2022/04/22 04:56:52;;;;;;;17.50;10.35;;;10.40;88.80;;;;;;5073704;28;20032;-11
2022/04/22 04:59:19;;;;;;;18.38;10.10;;;10.40;89.10;;;;;;5073455;28;20521;-11
2022/04/22 05:01:46;;;;;;;17.58;10.40;;;10.40;88.40;;;;;;5073617;28;20038;-10
2022/04/22 05:04:12;;;;;;;13.85;9.18;;;10.40;89.00;;;;;;5073727;28;20107;-10
2022/04/22 05:06:38;;;;;;;16.08;10.38;;;10.40;89.30;;;;;;5073462;28;20415;-10
2022/04/22 05:09:03;;;;;;;14.85;9.35;;;10.40;89.20;;;;;;5073361;28;20550;-10
2022/04/22 05:11:29;;;;;;;13.82;8.93;;;10.40;89.50;;;;;;5073192;28;20116;-11
2022/04/22 05:13:55;;;;;;;16.50;8.93;;;10.40;89.20;;;;;;5073166;28;20550;-10
2022/04/22 05:16:21;;;;;;;14.30;8.77;;;10.50;89.50;;;;;;5073027;28;20070;-10
2022/04/22 05:18:47;;;;;;;14.38;8.75;;;10.50;89.50;;;;;;5073193;28;20459;-10
2022/04/22 05:21:13;;;;;;;13.93;8.43;;;10.50;89.30;;;;;;5073500;28;20031;-10
2022/04/22 05:23:39;;;;;;;14.18;8.07;;;10.60;89.20;;;;;;5073473;28;20078;-11
2022/04/22 05:26:05;;;;;;;13.50;8.60;;;10.70;88.80;;;;;;5073050;28;20021;-11
2022/04/22 05:28:31;;;;;;;11.98;7.20;;;10.70;88.70;;;;;;5073236;28;20039;-10
2022/04/22 05:33:43;;;;;;;10.30;6.95;;;10.80;88.70;;;;;;5073547;28;20484;-10
2022/04/22 05:36:09;;;;;;;12.13;6.50;;;10.80;88.50;;;;;;5073707;28;20075;-10
2022/04/22 05:38:35;;;;;;;11.40;7.10;;;10.90;88.50;;;;;;5073225;28;20473;-10
2022/04/22 05:41:02;;;;;;;13.27;6.75;;;10.90;88.30;;;;;;5072830;28;20036;-10
2022/04/22 05:43:28;;;;;;;10.32;6.57;;;10.90;88.40;;;;;;5073281;28;20032;-11
2022/04/22 05:45:54;;;;;;;13.32;6.57;;;10.90;88.10;;;;;;5072920;28;20040;-9
2022/04/22 05:48:21;;;;;;;11.45;6.85;;;10.90;88.20;;;;;;5072793;28;20029;-10
2022/04/22 05:50:47;;;;;;;10.63;6.47;;;11.00;88.00;;;;;;5072858;28;20029;-11
2022/04/22 05:53:13;;;;;;;12.65;6.25;;;11.10;87.60;;;;;;5072771;28;20032;-11
2022/04/22 05:55:39;;;;;;;10.30;6.60;;;11.10;87.60;;;;;;5073611;28;20020;-10
2022/04/22 05:58:05;;;;;;;12.95;5.97;;;11.10;87.70;;;;;;5072794;28;20354;-10
2022/04/22 06:00:31;;;;;;;11.48;6.22;;;11.10;87.50;;;;;;5072553;28;20388;-12
2022/04/22 06:02:58;;;;;;;9.50;5.88;;;11.20;87.50;;;;;;5073335;28;20032;-11
2022/04/22 06:05:26;;;;;;;11.82;6.40;;;11.20;87.60;;;;;;5073029;28;20033;-11
2022/04/22 06:10:39;;;;;;;10.43;6.28;;;11.20;87.50;;;;;;5073253;28;20039;-11
2022/04/22 06:13:07;;;;;;;11.57;6.03;;;11.20;87.50;;;;;;5072591;28;20060;-10
2022/04/22 06:15:33;;;;;;;10.13;5.80;;;11.20;87.40;;;;;;5072935;28;20033;-10
2022/04/22 06:18:01;;;;;;;11.13;6.05;;;11.20;87.60;;;;;;5072759;28;20129;-11
2022/04/22 06:20:27;;;;;;;12.43;6.13;;;11.20;87.60;;;;;;5072388;28;20036;-10
2022/04/22 06:22:54;;;;;;;10.98;5.60;;;11.20;87.70;;;;;;5072542;28;20021;-11
2022/04/22 06:25:20;;;;;;;11.30;6.20;;;11.20;87.50;;;;;;5072826;28;20017;-10
2022/04/22 06:27:47;;;;;;;8.80;5.38;;;11.30;87.50;;;;;;5072730;28;20048;-12
2022/04/22 06:30:18;;;;;;;10.10;5.70;;;11.30;87.20;;;;;;5072512;28;20090;-10
2022/04/22 06:32:46;;;;;;;11.52;5.50;;;11.30;87.50;;;;;;5072843;28;20012;-11
2022/04/22 06:35:13;;;;;;;11.48;5.32;;;11.30;87.40;;;;;;5072378;28;20081;-11
2022/04/22 06:37:42;;;;;;;10.40;5.55;;;11.40;87.60;;;;;;5073086;28;20055;-10
2022/04/22 06:45:47;;;;;;;14.23;6.22;;;11.40;87.80;;;;;;5072753;28;20067;-13
2022/04/22 06:48:25;;;;;;;9.73;5.80;;;11.40;87.90;;;;;;5072601;28;20025;-14
2022/04/22 06:50:52;;;;;;;12.30;5.85;;;11.40;87.40;;;;;;5076102;28;20024;-11
2022/04/22 06:53:19;;;;;;;12.15;6.00;;;11.40;87.70;;;;;;5075758;28;20029;-11
2022/04/22 06:55:47;;;;;;;11.85;5.50;;;11.50;87.50;;;;;;5076014;28;20032;-10
2022/04/22 06:58:16;;;;;;;10.48;6.10;;;11.50;87.70;;;;;;5076185;28;20027;-10
2022/04/22 07:00:43;;;;;;;13.40;5.75;;;11.60;87.50;;;;;;5075725;28;20086;-10
2022/04/22 07:03:11;;;;;;;8.18;5.18;;;11.60;87.60;;;;;;5075998;28;20020;-11
2022/04/22 07:05:39;;;;;;;9.85;5.47;;;11.60;87.40;;;;;;5075915;28;20082;-11
2022/04/22 07:08:07;;;;;;;13.57;5.88;;;11.70;87.10;;;;;;5075858;28;20037;-10
2022/04/22 07:10:36;;;;;;;9.32;5.50;;;11.70;87.00;;;;;;5075526;28;20487;-10
2022/04/22 07:13:04;;;;;;;9.32;5.28;;;11.70;87.00;;;;;;5075699;28;20145;-10
2022/04/22 07:15:31;;;;;;;10.02;5.03;;;11.80;86.90;;;;;;5075377;28;20029;-10
2022/04/22 07:17:57;;;;;;;10.57;5.55;;;11.80;86.70;;;;;;5075329;28;20491;-10
2022/04/22 07:20:23;;;;;;;8.63;4.68;;;11.80;86.80;;;;;;5075258;28;20028;-11
2022/04/22 07:22:50;;;;;;;10.07;5.40;;;11.80;86.70;;;;;;5075614;28;20024;-11
2022/04/22 07:25:18;;;;;;;9.13;4.82;;;11.90;86.70;;;;;;5075455;28;20384;-11
2022/04/22 07:27:46;;;;;;;7.85;4.82;;;11.90;86.90;;;;;;5075183;28;20060;-11
2022/04/22 07:30:17;;;;;;;8.32;4.95;;;11.90;86.60;;;;;;5075488;28;20029;-11
2022/04/22 07:32:47;;;;;;;9.90;5.28;;;11.90;86.40;;;;;;5073878;28;20040;-12
2022/04/22 07:35:19;;;;;;;9.80;5.25;;;11.90;86.20;;;;;;5073786;28;20068;-10
2022/04/22 07:37:48;;;;;;;11.18;5.97;;;12.00;86.40;;;;;;5075086;28;20032;-10
2022/04/22 07:40:15;;;;;;;6.28;4.53;;;12.00;85.90;;;;;;5074800;28;20495;-13
2022/04/22 07:48:19;;;;;;;10.43;5.20;;;12.10;85.40;;;;;;5075045;28;20093;-10
2022/04/22 07:50:47;;;;;;;7.53;4.78;;;12.20;85.70;;;;;;5075296;28;20028;-10
2022/04/22 07:53:20;;;;;;;10.00;4.40;;;12.20;85.40;;;;;;5074637;28;20469;-10
2022/04/22 07:55:48;;;;;;;10.67;4.70;;;12.20;85.60;;;;;;5075213;28;20055;-10
2022/04/22 07:58:17;;;;;;;9.68;5.20;;;12.20;85.80;;;;;;5074617;28;20626;-10
2022/04/22 08:00:44;;;;;;;9.55;4.53;;;12.20;85.90;;;;;;5074449;28;20029;-12
2022/04/22 08:03:17;;;;;;;8.55;4.40;;;12.20;86.00;;;;;;5074914;28;20047;-10
2022/04/22 08:05:44;;;;;;;9.10;4.30;;;12.20;85.80;;;;;;5074562;28;20024;-10
2022/04/22 08:08:10;;;;;;;7.63;4.60;;;12.30;85.50;;;;;;5074575;28;20020;-10
2022/04/22 08:10:37;;;;;;;7.63;4.80;;;12.40;85.70;;;;;;5074349;28;20029;-10
2022/04/22 08:13:05;;;;;;;9.63;5.10;;;12.40;85.30;;;;;;5074074;28;20135;-10
2022/04/22 08:15:35;;;;;;;12.02;5.03;;;12.40;85.60;;;;;;5074158;28;20502;-11
2022/04/22 08:18:02;;;;;;;9.38;5.18;;;12.50;85.10;;;;;;5074198;28;20029;-11
2022/04/22 08:20:33;;;;;;;7.72;4.10;;;12.50;84.60;;;;;;5074323;28;20496;-10
2022/04/22 08:23:00;;;;;;;7.22;3.90;;;12.50;84.40;;;;;;5074678;28;20044;-11
2022/04/22 08:25:27;;;;;;;7.65;4.47;;;12.50;84.40;;;;;;5073986;28;20052;-11
2022/04/22 08:27:53;;;;;;;6.93;4.07;;;12.50;84.20;;;;;;5074038;28;20040;-11
2022/04/22 08:30:19;;;;;;;8.48;4.57;;;12.60;84.10;;;;;;5073789;28;20025;-12
2022/04/22 08:32:45;;;;;;;8.80;4.70;;;12.60;84.30;;;;;;5074561;28;20476;-12
2022/04/22 08:35:12;;;;;;;6.90;4.45;;;12.60;84.90;;;;;;5074633;28;20066;-11
2022/04/22 08:37:38;;;;;;;8.15;4.13;;;12.50;84.50;;;;;;5073812;28;20095;-11
2022/04/22 08:40:08;;;;;;;7.40;3.88;;;12.50;84.60;;;;;;5074139;28;20101;-11
2022/04/22 08:42:40;;;;;;;7.70;4.00;;;12.50;84.60;;;;;;5073999;28;20481;-11
2022/04/22 08:45:07;;;;;;;7.78;4.10;;;12.50;84.60;;;;;;5073771;28;20036;-11
2022/04/22 08:50:19;;;;;;;7.20;4.43;;;12.60;84.70;;;;;;5073784;28;20086;-11
2022/04/22 08:52:57;;;;;;;5.90;3.97;;;12.50;84.40;;;;;;5073547;28;20028;-11
2022/04/22 08:55:25;;;;;;;7.13;4.32;;;12.60;84.70;;;;;;5073648;28;20519;-11
2022/04/22 08:57:54;;;;;;;5.55;3.92;;;12.70;84.80;;;;;;5073483;28;20484;-11
2022/04/22 09:00:27;;;;;;;4.35;3.30;;;12.70;84.40;;;;;;5073281;28;20502;-11
2022/04/22 09:02:57;;;;;;;5.22;3.25;;;12.70;83.00;;;;;;5073466;28;20052;-11
2022/04/22 09:05:26;;;;;;;5.10;3.20;;;12.70;83.10;;;;;;5073685;28;20404;-12
2022/04/22 09:07:53;;;;;;;4.18;3.00;;;12.70;82.80;;;;;;5073382;28;20024;-10
2022/04/22 09:10:20;;;;;;;4.53;3.00;;;12.70;82.70;;;;;;5073158;28;20089;-10
2022/04/22 09:12:55;;;;;;;3.97;2.75;;;12.60;82.90;;;;;;5071110;28;20025;-11
2022/04/22 09:15:23;;;;;;;4.78;2.80;;;12.50;82.80;;;;;;5073453;28;20070;-10
2022/04/22 09:17:49;;;;;;;4.22;2.70;;;12.40;82.90;;;;;;5073514;28;20032;-11
2022/04/22 09:20:16;;;;;;;4.75;3.00;;;12.40;83.70;;;;;;5073317;28;20025;-11
2022/04/22 09:22:45;;;;;;;3.85;2.33;;;12.40;83.50;;;;;;5073160;28;20027;-10
2022/04/22 09:25:11;;;;;;;3.88;2.92;;;12.40;83.60;;;;;;5073377;28;20020;-10
2022/04/22 09:27:42;;;;;;;4.18;2.80;;;12.50;84.50;;;;;;5071897;28;20051;-10
2022/04/22 09:30:13;;;;;;;4.30;2.97;;;12.40;84.00;;;;;;5073434;28;20052;-12
2022/04/22 09:32:41;;;;;;;5.03;2.95;;;12.40;83.50;;;;;;5073434;28;20096;-11
2022/04/22 09:35:16;;;;;;;4.93;2.90;;;12.40;84.40;;;;;;5073569;28;20373;-11
2022/04/22 09:43:25;;;;;;;6.05;3.00;;;12.50;84.20;;;;;;5073452;28;20405;-10
2022/04/22 09:45:53;;;;;;;4.22;2.80;;;12.60;85.00;;;;;;5072940;28;20032;-10
2022/04/22 09:48:20;;;;;;;4.82;2.72;;;12.60;84.60;;;;;;5072980;28;20052;-11
2022/04/22 09:50:56;;;;;;;3.92;2.80;;;12.60;84.10;;;;;;5073498;28;20473;-11
2022/04/22 09:53:32;;;;;;;4.47;2.58;;;12.60;84.40;;;;;;5072783;28;20031;-10
2022/04/22 09:56:09;;;;;;;5.47;3.00;;;12.70;84.00;;;;;;5073088;28;20033;-11
2022/04/22 09:58:36;;;;;;;3.33;2.65;;;12.70;84.00;;;;;;5072695;28;20082;-10
2022/04/22 10:01:06;;;;;;;2.97;2.50;;;12.80;84.20;;;;;;5072791;28;20484;-11
2022/04/22 10:03:33;;;;;;;3.80;2.33;;;12.80;83.60;;;;;;5072780;28;20108;-11
2022/04/22 10:06:01;;;;;;;3.58;2.50;;;12.90;83.20;;;;;;5072696;28;20080;-11
2022/04/22 10:08:30;;;;;;;5.82;2.50;;;12.90;84.20;;;;;;5072525;28;20115;-10
2022/04/22 10:11:01;;;;;;;3.75;2.00;;;13.00;84.50;;;;;;5072954;28;20029;-10
2022/04/22 10:13:33;;;;;;;3.65;2.40;;;13.00;83.60;;;;;;5072401;28;20500;-12
2022/04/22 10:16:02;;;;;;;5.70;2.80;;;13.10;83.80;;;;;;5072613;28;20036;-11
2022/04/22 10:18:30;;;;;;;3.75;2.70;;;13.10;83.50;;;;;;5072397;28;20033;-11
2022/04/22 10:20:57;;;;;;;4.28;2.47;;;13.30;83.50;;;;;;5072874;28;20111;-11
2022/04/22 10:23:24;;;;;;;2.45;2.08;;;13.30;83.30;;;;;;5074329;28;20384;-10
2022/04/22 10:25:50;;;;;;;2.80;2.17;;;13.30;83.20;;;;;;5076269;28;20510;-11
2022/04/22 10:28:17;;;;;;;3.15;1.92;;;13.30;83.20;;;;;;5076420;28;20040;-11
2022/04/22 10:30:44;;;;;;;3.53;2.38;;;13.40;83.10;;;;;;5076810;28;20105;-10
2022/04/22 10:33:11;;;;;;;2.65;2.03;;;13.40;83.40;;;;;;5076738;28;20029;-11
2022/04/22 10:35:44;;;;;;;2.10;1.90;;;13.40;83.10;;;;;;5076115;28;20390;-9
2022/04/22 10:38:27;;;;;;;2.83;2.22;;;13.40;82.80;;;;;;5076198;28;20033;-12
2022/04/22 10:40:54;;;;;;;3.42;2.00;;;13.40;82.40;;;;;;5076749;28;20021;-10
2022/04/22 10:43:29;;;;;;;1.77;1.50;;;13.40;82.40;;;;;;5076363;28;20115;-11
2022/04/22 10:48:41;;;;;;;1.55;1.38;;;13.40;82.30;;;;;;5076425;28;20392;-11
2022/04/22 10:51:09;;;;;;;2.95;1.50;;;13.30;81.90;;;;;;5076207;28;20025;-11
2022/04/22 10:53:47;;;;;;;2.22;1.38;;;13.30;82.50;;;;;;5075885;28;20488;-11
2022/04/22 10:56:29;;;;;;;3.80;1.55;;;13.20;82.80;;;;;;5075584;28;20404;-9
2022/04/22 10:59:18;;;;;;;3.75;1.63;;;13.30;82.80;;;;;;5076593;28;20078;-11
2022/04/22 11:01:44;;;;;;;2.17;1.52;;;13.40;82.70;;;;;;5075719;28;20029;-10
2022/04/22 11:04:20;;;;;;;1.58;1.40;;;13.40;82.10;;;;;;5075605;28;20017;-10
2022/04/22 11:06:47;;;;;;;1.75;1.48;;;13.50;82.50;;;;;;5075656;28;20030;-10
2022/04/22 11:09:27;;;;;;;2.88;1.65;;;13.50;82.40;;;;;;5075617;28;20024;-10
2022/04/22 11:11:54;;;;;;;3.13;1.77;;;13.60;82.60;;;;;;5076102;28;20023;-12
2022/04/22 11:14:23;;;;;;;4.82;2.15;;;13.60;82.60;;;;;;5075001;28;20565;-10
2022/04/22 11:16:50;;;;;;;5.25;3.00;;;13.70;82.80;;;;;;5075448;28;20029;-11
2022/04/22 11:19:19;;;;;;;5.95;3.55;;;13.80;82.30;;;;;;5076047;28;20350;-11
2022/04/22 11:21:46;;;;;;;3.60;2.53;;;13.80;82.20;;;;;;5075593;28;20028;-11
2022/04/22 11:24:24;;;;;;;3.35;2.67;;;13.90;82.40;;;;;;5075609;28;20036;-11
2022/04/22 11:26:52;;;;;;;2.53;2.08;;;13.90;82.30;;;;;;5075110;28;20318;-11
2022/04/22 11:29:19;;;;;;;3.05;1.80;;;13.90;82.00;;;;;;5075513;28;20044;-10
2022/04/22 11:32:27;;;;;;;2.03;1.50;;;13.90;79.90;;;;;;5075141;28;20059;-11
2022/04/22 11:35:10;;;;;;;3.10;2.10;;;13.90;79.70;;;;;;5032492;28;20037;-11
2022/04/22 11:37:37;;;;;;;2.15;1.38;;;14.00;80.80;;;;;;5033477;28;20108;-11
2022/04/22 11:40:08;;;;;;;1.88;1.45;;;13.90;79.80;;;;;;5033376;28;20033;-11
2022/04/22 11:42:43;;;;;;;2.03;1.30;;;13.90;78.50;;;;;;5032768;28;20027;-11
2022/04/22 11:45:13;;;;;;;2.08;1.70;;;13.90;78.20;;;;;;5032881;28;20034;-10
2022/04/22 11:47:39;;;;;;;2.47;1.90;;;13.80;79.50;;;;;;5032876;28;20017;-11
2022/04/22 11:50:09;;;;;;;2.10;1.73;;;13.70;78.70;;;;;;5032862;28;20029;-12
2022/04/22 11:52:36;;;;;;;1.83;1.55;;;13.70;79.20;;;;;;5032677;28;20414;-10
2022/04/22 11:55:05;;;;;;;1.88;1.67;;;13.80;79.90;;;;;;5032907;28;20033;-10
2022/04/22 11:57:39;;;;;;;1.55;1.45;;;13.70;79.40;;;;;;5032641;28;20036;-10
2022/04/22 12:05:47;;;;;;;2.38;1.67;;;13.80;79.60;;;;;;5056926;28;20031;-11
2022/04/22 12:08:15;;;;;;;4.38;1.83;;;13.80;79.20;;;;;;5074535;28;20013;-11
2022/04/22 12:10:48;;;;;;;1.60;1.50;;;13.70;78.40;;;;;;5074319;28;20037;-10
2022/04/22 12:13:16;;;;;;;1.52;1.42;;;13.60;78.90;;;;;;5074201;28;20060;-10
2022/04/22 12:15:48;;;;;;;1.63;1.52;;;13.60;79.00;;;;;;5074254;28;20079;-10
2022/04/22 12:18:40;;;;;;;1.80;1.45;;;13.70;77.80;;;;;;5074033;28;20033;-10
2022/04/22 12:21:07;;;;;;;1.92;1.40;;;13.60;77.30;;;;;;5074236;28;20376;-10
2022/04/22 12:23:35;;;;;;;1.45;1.27;;;13.50;77.40;;;;;;5074064;28;20523;-9
2022/04/22 12:26:01;;;;;;;1.42;1.30;;;13.50;77.70;;;;;;5074348;28;20028;-10
2022/04/22 12:28:28;;;;;;;4.10;1.50;;;13.50;78.20;;;;;;5073844;28;20504;-10
2022/04/22 12:30:54;;;;;;;2.17;1.73;;;13.50;78.20;;;;;;5074014;28;20028;-10
2022/04/22 12:33:23;;;;;;;3.33;1.63;;;13.60;78.70;;;;;;5074177;28;20111;-10
2022/04/22 12:36:07;;;;;;;1.50;1.40;;;13.70;78.30;;;;;;5073935;28;20032;-10
2022/04/22 12:38:36;;;;;;;3.95;1.73;;;13.70;77.70;;;;;;5073996;28;20021;-10
2022/04/22 12:41:14;;;;;;;2.22;1.70;;;13.80;77.80;;;;;;5073706;28;20025;-10
2022/04/22 12:43:46;;;;;;;2.60;1.95;;;13.80;78.00;;;;;;5072582;28;20027;-10
2022/04/22 12:52:14;;;;;;;2.17;1.90;;;13.70;78.40;;;;;;5074280;28;20031;-9
2022/04/22 12:54:45;;;;;;;2.45;1.63;;;13.70;78.10;;;;;;5073817;28;20126;-10
2022/04/22 12:57:23;;;;;;;2.83;2.10;;;13.70;79.10;;;;;;5073858;28;20024;-10
2022/04/22 12:59:56;;;;;;;2.00;1.58;;;13.60;79.20;;;;;;5073538;28;20495;-10
2022/04/22 13:02:30;;;;;;;4.43;1.90;;;13.70;78.10;;;;;;5073633;28;20058;-8
2022/04/22 13:05:06;;;;;;;2.80;2.00;;;13.60;78.80;;;;;;5074285;28;20024;-9
2022/04/22 13:07:43;;;;;;;2.42;1.92;;;13.60;79.20;;;;;;5073718;28;20064;-10
2022/04/22 13:10:10;;;;;;;2.08;1.77;;;13.50;79.30;;;;;;5073433;28;20024;-10
2022/04/22 13:12:39;;;;;;;3.60;2.28;;;13.60;79.80;;;;;;5072815;28;20028;-10
2022/04/22 13:15:13;;;;;;;4.20;1.98;;;13.50;80.20;;;;;;5073567;28;20082;-9
2022/04/22 13:17:46;;;;;;;;;;;13.50;79.90;;;;;;5072718;28;20441;-9
2022/04/22 13:20:14;;;;;;;3.47;1.90;;;13.40;80.40;;;;;;5073243;28;20408;-10
2022/04/22 13:22:41;;;;;;;2.92;2.13;;;13.40;81.10;;;;;;5073186;28;20027;-10
2022/04/22 13:25:10;;;;;;;4.60;2.28;;;13.40;80.90;;;;;;5071913;28;20021;-10
2022/04/22 13:27:37;;;;;;;4.25;2.35;;;13.40;81.80;;;;;;5073204;28;20107;-9
2022/04/22 13:30:04;;;;;;;4.28;2.05;;;13.40;82.00;;;;;;5071813;28;20021;-11
2022/04/22 13:32:31;;;;;;;2.13;1.67;;;13.40;81.70;;;;;;5071571;28;20031;-10
2022/04/22 13:34:57;;;;;;;2.83;2.33;;;13.40;81.80;;;;;;5073021;28;20503;-10
2022/04/22 13:37:23;;;;;;;3.88;2.20;;;13.30;82.30;;;;;;5073274;28;20036;-10
2022/04/22 13:39:49;;;;;;;3.95;2.40;;;13.20;82.10;;;;;;5073090;28;20104;-11
2022/04/22 13:42:18;;;;;;;4.32;2.50;;;13.10;82.90;;;;;;5072764;28;20052;-11
2022/04/22 13:52:58;;;;;;;5.13;2.63;;;12.80;83.70;;;;;;5073189;28;20124;-11
2022/04/22 13:55:25;;;;;;;3.50;2.30;;;12.80;83.90;;;;;;5072839;28;20474;-10
2022/04/22 13:57:51;;;;;;;3.80;2.60;;;12.80;83.70;;;;;;5073622;28;20090;-11